Time;durP1;ratioP1;P1;durP2;ratioP2;P2;SDS_P1;SDS_P2;PMS_P1;PMS_P2;Temp;Humidity;BMP_temperature;BMP_pressure;BME280_temperature;BME280_humidity;BME280_pressure;Samples;Min_cycle;Max_cycle;Signal;HPM_P1;HPM_P2
2022/09/26 00:01:03;;;;;;;9.50;8.80;;;;;;;10.73;100.00;99870.63;5020491;28;20243;-75
2022/09/26 00:03:28;;;;;;;9.77;8.87;;;;;;;10.68;100.00;99878.47;5023123;28;20183;-75
2022/09/26 00:06:06;;;;;;;9.53;8.83;;;;;;;10.65;100.00;99889.72;5014325;28;20266;-75
2022/09/26 00:08:32;;;;;;;10.20;9.40;;;;;;;10.62;100.00;99886.31;5026394;28;20194;-75
2022/09/26 00:11:00;;;;;;;10.00;9.13;;;;;;;10.58;100.00;99884.66;5014767;28;21817;-74
2022/09/26 00:13:26;;;;;;;9.73;8.93;;;;;;;10.51;100.00;99882.16;5019571;28;20255;-75
2022/09/26 00:15:52;;;;;;;9.53;8.73;;;;;;;10.50;100.00;99882.19;5018634;28;20237;-74
2022/09/26 00:18:18;;;;;;;9.77;9.03;;;;;;;10.47;100.00;99874.47;5021732;28;20826;-75
2022/09/26 00:20:43;;;;;;;10.20;9.43;;;;;;;10.44;100.00;99872.78;5021924;28;20205;-75
2022/09/26 00:23:08;;;;;;;9.60;8.90;;;;;;;10.39;100.00;99872.00;5020508;28;20290;-75
2022/09/26 00:25:34;;;;;;;9.57;8.83;;;;;;;10.36;100.00;99872.84;5024178;28;20199;-74
2022/09/26 00:27:59;;;;;;;9.90;9.10;;;;;;;10.32;100.00;99863.44;5017626;28;20727;-75
2022/09/26 00:30:25;;;;;;;10.77;9.90;;;;;;;10.34;100.00;99873.75;5013204;28;20184;-75
2022/09/26 00:32:50;;;;;;;10.13;9.23;;;;;;;10.31;100.00;99877.25;5010734;28;20212;-75
2022/09/26 00:35:16;;;;;;;9.13;8.43;;;;;;;10.27;100.00;99873.00;5015209;28;20251;-75
2022/09/26 00:37:41;;;;;;;10.10;9.23;;;;;;;10.25;100.00;99863.56;5010133;28;20692;-75
2022/09/26 00:40:07;;;;;;;11.60;9.10;;;;;;;10.27;100.00;99861.81;5019194;28;20216;-75
2022/09/26 00:42:32;;;;;;;10.83;9.93;;;;;;;10.26;100.00;99863.53;5017592;28;20180;-75
2022/09/26 00:44:58;;;;;;;9.87;9.07;;;;;;;10.22;100.00;99859.25;5013007;28;20660;-74
2022/09/26 00:47:37;;;;;;;10.27;9.40;;;;;;;10.21;100.00;99857.56;5012708;28;20258;-75
2022/09/26 00:50:12;;;;;;;10.10;9.20;;;;;;;10.20;100.00;99859.31;5019897;28;20191;-75
2022/09/26 00:52:52;;;;;;;9.90;9.13;;;;;;;10.19;100.00;99861.91;5016322;28;20211;-75
2022/09/26 00:55:22;;;;;;;10.13;9.33;;;;;;;10.16;100.00;99869.72;5007670;28;20210;-75
2022/09/26 00:57:57;;;;;;;9.97;9.10;;;;;;;10.13;100.00;99862.00;5021857;28;20191;-75
2022/09/26 01:00:23;;;;;;;9.30;8.50;;;;;;;10.10;100.00;99860.31;5022530;28;20197;-74
2022/09/26 01:02:50;;;;;;;8.63;7.93;;;;;;;10.09;100.00;99852.56;5017081;28;20188;-76
2022/09/26 01:05:18;;;;;;;9.40;8.60;;;;;;;10.06;100.00;99859.47;5015975;28;20205;-74
2022/09/26 01:07:44;;;;;;;8.10;7.40;;;;;;;10.05;100.00;99857.81;5022097;28;20208;-74
2022/09/26 01:10:11;;;;;;;8.23;7.53;;;;;;;10.05;100.00;99856.94;5013080;28;20667;-76
2022/09/26 01:12:37;;;;;;;8.70;8.00;;;;;;;10.03;100.00;99851.78;5014675;28;20202;-75
2022/09/26 01:15:04;;;;;;;8.53;7.77;;;;;;;10.01;100.00;99850.94;5011607;28;20668;-75
2022/09/26 01:17:29;;;;;;;9.60;8.80;;;;;;;10.03;100.00;99844.03;5014740;28;20734;-75
2022/09/26 01:20:19;;;;;;;10.00;9.00;;;;;;;10.05;100.00;99844.88;5016357;28;20218;-75
2022/09/26 01:23:15;;;;;;;10.03;9.13;;;;;;;10.06;100.00;99848.31;5012011;28;20218;-75
2022/09/26 01:26:11;;;;;;;10.50;9.60;;;;;;;10.06;100.00;99845.72;5011654;28;20191;-75
2022/09/26 01:29:01;;;;;;;10.53;9.63;;;;;;;10.10;100.00;99843.94;5017450;28;20200;-75
2022/09/26 01:31:41;;;;;;;10.63;9.80;;;;;;;10.09;100.00;99837.91;5013971;28;20208;-74
2022/09/26 01:34:17;;;;;;;10.40;9.60;;;;;;;10.10;100.00;99839.63;5009560;28;20196;-74
2022/09/26 01:37:18;;;;;;;10.37;9.53;;;;;;;10.10;100.00;99842.22;5015544;28;20247;-75
2022/09/26 01:40:06;;;;;;;10.13;9.13;;;;;;;10.10;100.00;99837.03;4991630;28;20472;-75
2022/09/26 01:42:57;;;;;;;9.93;8.97;;;;;;;10.10;100.00;99836.19;5012913;28;20201;-74
2022/09/26 01:45:32;;;;;;;9.93;9.10;;;;;;;10.10;100.00;99831.88;5015749;28;20191;-74
2022/09/26 01:48:18;;;;;;;9.50;8.80;;;;;;;10.11;100.00;99830.13;5013597;28;20276;-75
2022/09/26 01:50:56;;;;;;;9.90;9.20;;;;;;;10.08;100.00;99831.03;5008967;28;20212;-75
2022/09/26 01:53:27;;;;;;;9.60;8.90;;;;;;;10.06;100.00;99828.47;5014073;28;20193;-74
2022/09/26 01:56:06;;;;;;;10.27;9.47;;;;;;;10.07;100.00;99830.16;5013526;28;20294;-74
2022/09/26 01:58:48;;;;;;;9.83;9.07;;;;;;;10.05;100.00;99821.59;5018942;28;20191;-75
2022/09/26 02:01:15;;;;;;;10.40;9.50;;;;;;;10.06;100.00;99823.28;5018827;28;20191;-74
2022/09/26 02:03:53;;;;;;;9.80;8.90;;;;;;;10.08;100.00;99823.28;5013546;28;21066;-75
2022/09/26 02:06:29;;;;;;;10.33;9.43;;;;;;;10.09;100.00;99819.81;5011160;28;20208;-74
2022/09/26 02:09:03;;;;;;;11.37;10.37;;;;;;;10.12;100.00;99811.16;5014717;28;20203;-75
2022/09/26 02:11:29;;;;;;;10.33;9.53;;;;;;;10.14;100.00;99807.66;5020046;28;20221;-75
2022/09/26 02:14:04;;;;;;;11.77;10.87;;;;;;;10.16;100.00;99802.47;5010315;28;20283;-74
2022/09/26 02:16:40;;;;;;;11.70;10.70;;;;;;;10.19;100.00;99797.28;5016727;28;20250;-75
2022/09/26 02:19:19;;;;;;;11.70;10.80;;;;;;;10.24;100.00;99799.78;5015787;28;20209;-75
2022/09/26 02:21:45;;;;;;;10.80;9.90;;;;;;;10.25;100.00;99798.91;5016730;28;20199;-75
2022/09/26 02:24:10;;;;;;;10.90;10.03;;;;;;;10.26;100.00;99796.28;5013619;28;20192;-74
2022/09/26 02:26:36;;;;;;;10.30;9.40;;;;;;;10.27;100.00;99787.66;5011719;28;20227;-75
2022/09/26 02:29:01;;;;;;;10.27;9.47;;;;;;;10.27;100.00;99782.47;5015742;28;20545;-75
2022/09/26 02:31:34;;;;;;;9.70;9.00;;;;;;;10.28;100.00;99785.94;5010387;28;20180;-75
2022/09/26 02:34:00;;;;;;;9.57;8.87;;;;;;;10.26;100.00;99785.94;5019509;28;20594;-74
2022/09/26 02:36:26;;;;;;;9.67;8.87;;;;;;;10.27;100.00;99786.81;5014648;28;20208;-75
2022/09/26 02:38:51;;;;;;;10.03;9.10;;;;;;;10.26;100.00;99778.19;5013933;28;20188;-75
2022/09/26 02:41:27;;;;;;;9.60;8.80;;;;;;;10.24;100.00;99779.94;5012545;28;20187;-75
2022/09/26 02:44:15;;;;;;;9.63;8.87;;;;;;;10.25;100.00;99771.28;5017694;28;20183;-75
2022/09/26 02:47:19;;;;;;;9.40;8.70;;;;;;;10.23;100.00;99775.63;5013832;28;20235;-75
2022/09/26 02:50:07;;;;;;;9.83;8.83;;;;;;;10.22;100.00;99771.34;5015117;28;20195;-75
2022/09/26 02:52:51;;;;;;;9.97;9.07;;;;;;;10.20;100.00;99763.63;5011876;28;20218;-74
2022/09/26 02:55:35;;;;;;;9.23;8.53;;;;;;;10.20;100.00;99761.03;5007843;28;20188;-75
2022/09/26 02:58:16;;;;;;;9.77;8.87;;;;;;;10.18;100.00;99754.19;5013959;28;20191;-74
2022/09/26 03:01:00;;;;;;;9.17;7.87;;;;;;;10.17;100.00;99758.50;5013626;28;20673;-75
2022/09/26 03:03:34;;;;;;;9.10;8.30;;;;;;;10.14;100.00;99745.59;5015541;28;20329;-75
2022/09/26 03:06:02;;;;;;;8.47;7.73;;;;;;;10.13;100.00;99749.09;5020463;28;20207;-75
2022/09/26 03:08:33;;;;;;;8.20;7.50;;;;;;;10.09;100.00;99755.19;5025313;28;20283;-74
2022/09/26 03:11:04;;;;;;;8.00;7.30;;;;;;;10.08;100.00;99743.13;5017827;28;20666;-74
2022/09/26 03:13:34;;;;;;;7.70;7.10;;;;;;;10.06;100.00;99748.31;5017745;28;20739;-75
2022/09/26 03:15:59;;;;;;;6.87;6.37;;;;;;;10.04;100.00;99744.91;5014869;28;21061;-74
2022/09/26 03:18:35;;;;;;;8.03;7.43;;;;;;;10.03;100.00;99737.16;5022955;28;20286;-75
2022/09/26 03:21:01;;;;;;;7.80;7.20;;;;;;;10.01;100.00;99736.34;5013121;28;20634;-75
2022/09/26 03:23:27;;;;;;;7.50;6.80;;;;;;;9.98;100.00;99736.41;5014893;28;20192;-74
2022/09/26 03:25:59;;;;;;;7.23;6.67;;;;;;;9.95;100.00;99728.69;5013684;28;20608;-76
2022/09/26 03:28:24;;;;;;;7.33;6.73;;;;;;;9.90;100.00;99721.84;5023171;28;20191;-74
2022/09/26 03:30:49;;;;;;;7.90;7.30;;;;;;;9.87;100.00;99721.91;5020606;28;20192;-75
2022/09/26 03:33:15;;;;;;;8.10;7.50;;;;;;;9.82;100.00;99715.09;5010488;28;20188;-74
2022/09/26 03:35:40;;;;;;;7.20;6.60;;;;;;;9.75;100.00;99715.19;5015285;28;20293;-75
2022/09/26 03:38:05;;;;;;;6.80;6.20;;;;;;;9.70;100.00;99716.13;5009329;28;20767;-75
2022/09/26 03:40:31;;;;;;;7.27;6.63;;;;;;;9.64;100.00;99713.66;5010813;28;20191;-75
2022/09/26 03:42:56;;;;;;;7.17;6.60;;;;;;;9.58;100.00;99706.84;5015320;28;20698;-75
2022/09/26 03:45:21;;;;;;;6.87;6.37;;;;;;;9.51;100.00;99706.06;5016842;28;20663;-75
2022/09/26 03:47:46;;;;;;;6.30;5.80;;;;;;;9.45;100.00;99698.41;5025208;28;20269;-75
2022/09/26 03:50:13;;;;;;;5.80;5.40;;;;;;;9.40;100.00;99695.88;5012647;28;20194;-75
2022/09/26 03:52:39;;;;;;;7.07;5.90;;;;;;;9.34;100.00;99695.94;5019939;28;20281;-75
2022/09/26 03:55:04;;;;;;;6.80;5.93;;;;;;;9.30;100.00;99696.88;5015222;28;20250;-74
2022/09/26 03:57:29;;;;;;;5.27;4.87;;;;;;;9.26;100.00;99679.72;5016507;28;20333;-75
2022/09/26 03:59:55;;;;;;;5.77;5.37;;;;;;;9.21;100.00;99673.75;5017958;28;20583;-75
2022/09/26 04:02:21;;;;;;;5.83;5.33;;;;;;;9.19;100.00;99676.38;5018832;28;20199;-75
2022/09/26 04:04:46;;;;;;;5.90;5.50;;;;;;;9.15;100.00;99672.13;5023998;28;20198;-75
2022/09/26 04:07:11;;;;;;;5.77;5.27;;;;;;;9.12;100.00;99666.97;5016469;28;20208;-74
2022/09/26 04:09:37;;;;;;;5.73;5.20;;;;;;;9.09;100.00;99667.88;5017604;28;20194;-75
2022/09/26 04:12:02;;;;;;;5.30;4.90;;;;;;;9.06;100.00;99665.34;5013721;28;20176;-74
2022/09/26 04:14:27;;;;;;;5.33;4.93;;;;;;;9.03;100.00;99661.94;5015919;28;20212;-75
2022/09/26 04:16:53;;;;;;;5.17;4.77;;;;;;;9.00;100.00;99655.06;5012216;28;20578;-75
2022/09/26 04:19:18;;;;;;;4.93;4.63;;;;;;;8.95;100.00;99646.56;5014996;28;20192;-75
2022/09/26 04:21:43;;;;;;;5.10;4.80;;;;;;;8.94;100.00;99639.69;5015761;28;20196;-75
2022/09/26 04:24:14;;;;;;;5.47;4.97;;;;;;;8.93;100.00;99641.41;5018872;28;20205;-74
2022/09/26 04:26:43;;;;;;;5.33;4.90;;;;;;;8.91;100.00;99629.41;5015818;28;20200;-75
2022/09/26 04:29:09;;;;;;;5.80;5.40;;;;;;;8.89;100.00;99632.00;5017488;28;20600;-74
2022/09/26 04:31:35;;;;;;;5.40;5.00;;;;;;;8.87;100.00;99623.44;5009772;28;20198;-74
2022/09/26 04:34:03;;;;;;;4.90;4.60;;;;;;;8.85;100.00;99622.59;5013215;28;20215;-75
2022/09/26 04:36:28;;;;;;;4.93;4.50;;;;;;;8.83;100.00;99624.34;5013083;28;20215;-75
2022/09/26 04:38:53;;;;;;;5.20;4.80;;;;;;;8.81;100.00;99621.78;5016263;28;20202;-75
2022/09/26 04:41:20;;;;;;;4.70;4.40;;;;;;;8.79;100.00;99622.66;5013200;28;20637;-75
2022/09/26 04:43:46;;;;;;;4.97;4.57;;;;;;;8.76;100.00;99623.56;5011415;28;20189;-74
2022/09/26 04:46:20;;;;;;;4.90;4.60;;;;;;;8.74;100.00;99625.31;5014520;28;20345;-75
2022/09/26 04:48:45;;;;;;;4.73;4.40;;;;;;;8.70;100.00;99613.31;5012942;28;20193;-74
2022/09/26 04:51:13;;;;;;;4.90;4.50;;;;;;;8.67;100.00;99613.38;5010989;28;20575;-74
2022/09/26 04:53:40;;;;;;;4.63;4.23;;;;;;;8.64;100.00;99619.38;5012697;28;20217;-74
2022/09/26 04:56:08;;;;;;;5.40;5.00;;;;;;;8.62;100.00;99615.13;5010927;28;20250;-75
2022/09/26 04:58:34;;;;;;;5.27;4.67;;;;;;;8.59;100.00;99610.88;5016732;28;20278;-74
2022/09/26 05:01:05;;;;;;;5.80;5.30;;;;;;;8.57;100.00;99615.19;5015582;28;20187;-75
2022/09/26 05:03:31;;;;;;;4.87;4.47;;;;;;;8.53;100.00;99614.38;5022738;28;20245;-75
2022/09/26 05:05:57;;;;;;;5.17;4.77;;;;;;;8.52;100.00;99614.38;5016745;28;20741;-75
2022/09/26 05:08:23;;;;;;;5.37;4.97;;;;;;;8.49;100.00;99612.69;5018970;28;20693;-75
2022/09/26 05:10:53;;;;;;;4.90;4.50;;;;;;;8.49;100.00;99614.41;5017548;28;20209;-75
2022/09/26 05:13:20;;;;;;;5.23;4.83;;;;;;;8.46;100.00;99606.69;5020499;28;20198;-75
2022/09/26 05:15:46;;;;;;;5.03;4.63;;;;;;;8.46;100.00;99604.13;5019640;28;20217;-75
2022/09/26 05:18:12;;;;;;;5.13;4.73;;;;;;;8.46;100.00;99596.38;5013506;28;20200;-74
2022/09/26 05:20:38;;;;;;;5.43;4.93;;;;;;;8.46;100.00;99599.81;5018463;28;20185;-75
2022/09/26 05:23:06;;;;;;;4.80;4.40;;;;;;;8.45;100.00;99600.66;5016964;28;20273;-75
2022/09/26 05:28:25;;;;;;;5.30;4.90;;;;;;;8.44;100.00;99590.38;5016420;28;20261;-75
2022/09/26 05:30:51;;;;;;;5.53;5.03;;;;;;;8.44;100.00;99596.38;5020080;28;20218;-74
2022/09/26 05:33:20;;;;;;;6.50;5.93;;;;;;;8.44;100.00;99593.81;5015458;28;20289;-74
2022/09/26 05:35:51;;;;;;;6.43;5.93;;;;;;;8.44;100.00;99580.91;5015468;28;20217;-74
2022/09/26 05:38:17;;;;;;;5.90;5.40;;;;;;;8.45;100.00;99589.53;5016880;28;20544;-74
2022/09/26 05:40:57;;;;;;;5.17;4.77;;;;;;;8.47;100.00;99595.53;5017473;28;20248;-74
2022/09/26 05:43:24;;;;;;;5.03;4.53;;;;;;;8.48;100.00;99589.50;5013545;28;20699;-75
2022/09/26 05:45:50;;;;;;;5.17;4.77;;;;;;;8.50;100.00;99585.19;5012729;28;20207;-75
2022/09/26 05:48:16;;;;;;;5.20;4.70;;;;;;;8.53;100.00;99596.34;5009049;28;20290;-75
2022/09/26 05:50:42;;;;;;;5.37;4.83;;;;;;;8.62;100.00;99592.75;5011597;28;20714;-74
2022/09/26 05:53:08;;;;;;;5.30;4.80;;;;;;;8.73;100.00;99595.22;5015021;28;20706;-75
2022/09/26 05:55:33;;;;;;;4.90;4.50;;;;;;;8.92;100.00;99598.44;5013460;28;20211;-75
2022/09/26 05:57:59;;;;;;;4.70;4.40;;;;;;;9.16;100.00;99591.22;5011249;28;20203;-76
2022/09/26 06:00:25;;;;;;;4.47;4.17;;;;;;;9.38;100.00;99584.00;5013511;28;20210;-77
2022/09/26 06:02:57;;;;;;;4.43;4.03;;;;;;;9.53;100.00;99577.72;5008793;28;20242;-74
2022/09/26 06:05:24;;;;;;;4.10;3.70;;;;;;;9.59;100.00;99571.63;5018044;28;20237;-74
2022/09/26 06:07:51;;;;;;;4.40;4.10;;;;;;;9.58;100.00;99575.94;5011658;28;20687;-75
2022/09/26 06:10:17;;;;;;;4.17;3.77;;;;;;;9.58;100.00;99573.34;5014198;28;20239;-74
2022/09/26 06:12:42;;;;;;;4.00;3.70;;;;;;;9.57;100.00;99581.13;5012973;28;20192;-74
2022/09/26 06:15:10;;;;;;;3.87;3.57;;;;;;;9.53;100.00;99572.56;5013889;28;20559;-77
2022/09/26 06:17:36;;;;;;;4.17;3.70;;;;;;;9.49;100.00;99575.22;5018589;28;20316;-76
2022/09/26 06:20:03;;;;;;;3.80;3.50;;;;;;;9.48;100.00;99573.50;5009764;28;20830;-74
2022/09/26 06:22:28;;;;;;;4.13;3.50;;;;;;;9.56;100.00;99587.19;5014018;28;20179;-74
2022/09/26 06:24:53;;;;;;;3.43;3.13;;;;;;;9.63;100.00;99580.19;5015141;28;20622;-74
2022/09/26 06:27:21;;;;;;;3.73;3.43;;;;;;;9.64;100.00;99577.56;5018504;28;20215;-74
2022/09/26 06:29:46;;;;;;;3.47;3.20;;;;;;;9.63;100.00;99580.19;5011532;28;20259;-73
2022/09/26 06:32:12;;;;;;;3.50;3.20;;;;;;;9.65;100.00;99575.84;5018989;28;20188;-74
2022/09/26 06:34:37;;;;;;;3.60;3.30;;;;;;;9.64;100.00;99572.38;5021628;28;20235;-74
2022/09/26 06:37:02;;;;;;;3.80;3.50;;;;;;;9.64;100.00;99574.97;5018543;28;20214;-75
2022/09/26 06:39:34;;;;;;;4.10;3.70;;;;;;;9.61;100.00;99564.69;5023507;28;20240;-74
2022/09/26 06:42:06;;;;;;;3.50;3.17;;;;;;;9.59;100.00;99566.47;5013616;28;20198;-75
2022/09/26 06:44:32;;;;;;;3.50;3.20;;;;;;;9.57;100.00;99563.06;5015625;28;20200;-75
2022/09/26 06:46:59;;;;;;;3.87;3.50;;;;;;;9.56;100.00;99559.59;5021411;28;20235;-75
2022/09/26 06:49:26;;;;;;;3.70;3.40;;;;;;;9.56;100.00;99559.59;5018324;28;20192;-75
2022/09/26 06:51:51;;;;;;;3.67;3.40;;;;;;;9.57;100.00;99558.72;5015973;28;20210;-75
2022/09/26 06:54:16;;;;;;;3.57;3.37;;;;;;;9.60;100.00;99563.84;5011310;28;20193;-75
2022/09/26 06:56:42;;;;;;;3.93;3.63;;;;;;;9.61;100.00;99560.38;5014796;28;20779;-75
2022/09/26 06:59:07;;;;;;;4.00;3.70;;;;;;;9.67;100.00;99550.84;5021301;28;20858;-76
2022/09/26 07:01:32;;;;;;;4.30;3.60;;;;;;;9.73;100.00;99548.13;5021135;28;20200;-75
2022/09/26 07:03:58;;;;;;;4.23;3.70;;;;;;;9.89;100.00;99551.31;5027329;28;20199;-75
2022/09/26 07:06:23;;;;;;;4.10;3.80;;;;;;;10.03;100.00;99546.75;5027909;28;20203;-74
2022/09/26 07:08:51;;;;;;;4.17;3.50;;;;;;;10.15;100.00;99537.03;5022141;28;20192;-75
2022/09/26 07:11:16;;;;;;;4.23;3.43;;;;;;;10.26;100.00;99539.41;5019240;28;20192;-75
2022/09/26 07:13:41;;;;;;;3.93;3.57;;;;;;;10.37;100.00;99538.31;5049389;28;20176;-75
2022/09/26 07:16:07;;;;;;;3.43;3.10;;;;;;;10.50;100.00;99538.94;5043877;28;20226;-74
2022/09/26 07:18:32;;;;;;;3.43;3.13;;;;;;;10.68;100.00;99539.44;5042922;28;20189;-75
2022/09/26 07:20:57;;;;;;;3.33;3.03;;;;;;;10.90;100.00;99546.72;5043651;28;20183;-75
2022/09/26 07:23:23;;;;;;;2.93;2.73;;;;;;;11.10;100.00;99546.31;5043453;28;20211;-75
2022/09/26 07:25:48;;;;;;;4.23;2.90;;;;;;;11.32;100.00;99545.78;5044724;28;20206;-74
2022/09/26 07:28:13;;;;;;;3.43;3.13;;;;;;;11.48;100.00;99544.53;5039634;28;20278;-74
2022/09/26 07:30:39;;;;;;;5.57;3.13;;;;;;;11.64;100.00;99545.00;5035767;28;20227;-75
2022/09/26 07:33:04;;;;;;;2.70;2.50;;;;;;;11.78;100.00;99543.81;5042066;28;20211;-75
2022/09/26 07:35:31;;;;;;;3.00;2.70;;;;;;;11.92;100.00;99535.63;5042547;28;20207;-75
2022/09/26 07:37:57;;;;;;;3.60;2.80;;;;;;;12.02;100.00;99535.41;5050622;28;20190;-75
2022/09/26 07:40:23;;;;;;;3.10;2.80;;;;;;;12.10;100.00;99530.00;5040627;28;20176;-74
2022/09/26 07:42:50;;;;;;;3.20;2.60;;;;;;;12.19;100.00;99521.94;5042902;28;20241;-74
2022/09/26 07:45:15;;;;;;;3.10;2.90;;;;;;;12.28;100.00;99526.03;5036831;28;20196;-74
2022/09/26 07:50:24;;;;;;;3.77;2.67;;;;;;;12.43;100.00;99514.38;5044611;28;20224;-75
2022/09/26 07:52:50;;;;;;;3.33;2.80;;;;;;;12.53;100.00;99521.88;5042445;28;20199;-76
2022/09/26 07:55:19;;;;;;;3.60;3.13;;;;;;;12.62;100.00;99513.84;5036487;28;20184;-74
2022/09/26 07:57:45;;;;;;;3.30;3.10;;;;;;;12.73;100.00;99501.38;5044933;28;20241;-74
2022/09/26 08:00:16;;;;;;;3.10;2.90;;;;;;;12.87;100.00;99507.91;5038494;28;20189;-74
2022/09/26 08:02:45;;;;;;;3.27;2.97;;;;;;;13.00;100.00;99497.97;5037245;28;20181;-75
2022/09/26 08:05:16;;;;;;;4.30;3.43;;;;;;;13.10;100.00;99497.63;5041117;28;20184;-75
2022/09/26 08:07:42;;;;;;;4.60;3.37;;;;;;;13.27;100.00;99498.81;5045614;28;20204;-75
2022/09/26 08:10:14;;;;;;;4.00;3.40;;;;;;;13.41;100.00;99485.41;5041436;28;20216;-75
2022/09/26 08:12:39;;;;;;;4.97;3.50;;;;;;;13.54;100.00;99496.22;5039365;28;20197;-75
2022/09/26 08:15:06;;;;;;;4.03;3.50;;;;;;;13.67;100.00;99494.06;5037199;28;20184;-75
2022/09/26 08:17:32;;;;;;;3.70;3.40;;;;;;;13.75;100.00;99489.47;5030957;28;20212;-74
2022/09/26 08:20:01;;;;;;;3.73;3.43;;;;;;;13.83;100.00;99482.22;5016361;28;20238;-74
2022/09/26 08:22:26;;;;;;;5.20;3.40;;;;;;;13.98;100.00;99482.59;5015162;28;20187;-75
2022/09/26 08:24:53;;;;;;;6.90;3.80;;;;;;;14.12;100.00;99482.09;5012866;28;20197;-75
2022/09/26 08:27:21;;;;;;;3.90;3.60;;;;;;;14.25;100.00;99479.88;5015646;28;20276;-74
2022/09/26 08:29:48;;;;;;;4.90;3.40;;;;;;;14.37;100.00;99478.56;5016545;28;20665;-75
2022/09/26 08:32:15;;;;;;;3.73;3.43;;;;;;;14.50;100.00;99473.75;5013942;28;20184;-74
2022/09/26 08:34:40;;;;;;;3.43;3.00;;;;;;;14.71;100.00;99467.72;5020794;28;20188;-74
2022/09/26 08:37:06;;;;;;;3.87;3.47;;;;;;;14.80;100.00;99465.69;5013895;28;20219;-74
2022/09/26 08:39:31;;;;;;;4.03;3.33;;;;;;;14.85;100.00;99454.19;5018524;28;20182;-74
2022/09/26 08:42:16;;;;;;;4.70;3.43;;;;;;;14.98;100.00;99453.69;5018181;28;20194;-74
2022/09/26 08:44:52;;;;;;;5.37;3.60;;;;;;;15.08;100.00;99449.78;5016052;28;20627;-74
2022/09/26 08:47:35;;;;;;;3.87;3.23;;;;;;;15.14;100.00;99453.88;5019780;28;20555;-74
2022/09/26 08:50:19;;;;;;;3.80;3.50;;;;;;;15.19;100.00;99457.16;5019810;28;20198;-75
2022/09/26 08:53:33;;;;;;;4.00;3.23;;;;;;;15.30;100.00;99460.16;5015764;28;20227;-76
2022/09/26 08:56:00;;;;;;;4.13;3.27;;;;;;;15.37;100.00;99455.53;5012711;28;20226;-75
2022/09/26 08:58:50;;;;;;;5.67;3.70;;;;;;;15.57;100.00;99453.84;5022572;28;20195;-74
2022/09/26 09:01:30;;;;;;;5.20;2.97;;;;;;;15.92;100.00;99461.94;5014483;28;20215;-74
2022/09/26 09:04:04;;;;;;;5.77;3.33;;;;;;;16.42;100.00;99457.94;5019984;28;20563;-74
2022/09/26 09:06:30;;;;;;;3.27;2.83;;;;;;;16.83;100.00;99457.72;5016179;28;20239;-74
2022/09/26 09:08:56;;;;;;;3.07;2.70;;;;;;;17.01;100.00;99447.31;5022077;28;20183;-74
2022/09/26 09:11:49;;;;;;;3.27;2.97;;;;;;;17.24;100.00;99445.34;5018822;28;20630;-74
2022/09/26 09:14:26;;;;;;;2.80;2.53;;;;;;;17.40;99.88;99442.81;5019067;28;20191;-74
2022/09/26 09:17:24;;;;;;;2.53;2.30;;;;;;;17.52;97.47;99450.88;5018078;28;20209;-74
2022/09/26 09:20:14;;;;;;;3.03;2.37;;;;;;;17.56;96.63;99443.72;5019781;28;20189;-74
2022/09/26 09:22:48;;;;;;;2.40;2.20;;;;;;;17.40;96.65;99448.03;5019041;28;20194;-76
2022/09/26 09:25:42;;;;;;;2.67;2.10;;;;;;;17.27;97.83;99445.19;5020045;28;20246;-76
2022/09/26 09:28:43;;;;;;;3.17;2.23;;;;;;;17.30;97.65;99439.81;5016587;28;20662;-74
2022/09/26 09:31:13;;;;;;;2.53;2.20;;;;;;;17.24;96.35;99435.72;5016847;28;20187;-73
2022/09/26 09:33:49;;;;;;;2.43;1.87;;;;;;;17.12;96.61;99433.72;5015596;28;20201;-76
2022/09/26 09:36:27;;;;;;;2.70;2.13;;;;;;;17.24;97.07;99419.22;5014398;28;20225;-73
2022/09/26 09:38:57;;;;;;;2.47;2.27;;;;;;;17.39;96.80;99418.44;5015117;28;20613;-76
2022/09/26 09:41:29;;;;;;;2.73;2.00;;;;;;;17.57;95.83;99415.75;5015028;28;20709;-74
2022/09/26 09:43:58;;;;;;;2.83;2.37;;;;;;;17.73;95.32;99408.81;5014361;28;20190;-74
2022/09/26 09:46:27;;;;;;;2.77;2.17;;;;;;;17.98;94.79;99413.63;5015987;28;20201;-75
2022/09/26 09:48:56;;;;;;;2.30;1.87;;;;;;;18.12;92.95;99402.41;5012859;28;20559;-74
2022/09/26 09:51:47;;;;;;;3.67;2.30;;;;;;;18.22;90.22;99399.28;5015053;28;20204;-74
2022/09/26 09:54:22;;;;;;;2.00;1.80;;;;;;;18.06;90.92;99401.91;5016719;28;20264;-74
2022/09/26 09:57:26;;;;;;;2.07;1.90;;;;;;;18.01;90.71;99393.44;5018036;28;20297;-74
2022/09/26 10:00:07;;;;;;;1.63;1.53;;;;;;;17.88;91.30;99390.59;5004613;28;20196;-75
2022/09/26 10:03:08;;;;;;;3.37;2.00;;;;;;;17.76;90.18;99381.66;5021051;28;20281;-74
2022/09/26 10:05:35;;;;;;;2.93;1.70;;;;;;;17.67;91.21;99385.59;5003598;28;20265;-75
2022/09/26 10:08:02;;;;;;;2.97;2.20;;;;;;;17.68;91.40;99366.34;5014726;28;20200;-74
2022/09/26 10:10:43;;;;;;;2.63;2.03;;;;;;;17.59;90.51;99362.47;5020639;28;20191;-74
2022/09/26 10:13:09;;;;;;;3.40;1.93;;;;;;;17.42;92.25;99372.94;5022601;28;20187;-75
2022/09/26 10:15:40;;;;;;;4.37;1.70;;;;;;;17.52;92.92;99371.53;5024269;28;20210;-74
2022/09/26 10:18:15;;;;;;;2.77;2.10;;;;;;;17.78;91.22;99354.47;5020465;28;20243;-75
2022/09/26 10:20:58;;;;;;;2.90;1.93;;;;;;;18.11;90.43;99357.97;5017372;28;20200;-74
2022/09/26 10:23:31;;;;;;;4.37;1.93;;;;;;;18.42;88.58;99344.00;5019892;28;20187;-74
2022/09/26 10:26:09;;;;;;;3.47;2.10;;;;;;;18.65;87.83;99339.22;5021706;28;20608;-74
2022/09/26 10:28:42;;;;;;;3.43;2.10;;;;;;;18.89;86.73;99339.56;5023038;28;20669;-75
2022/09/26 10:31:09;;;;;;;2.13;1.93;;;;;;;18.94;86.88;99336.69;5020976;28;20209;-75
2022/09/26 10:33:43;;;;;;;3.30;2.00;;;;;;;18.88;87.66;99335.25;5021565;28;20265;-75
2022/09/26 10:36:19;;;;;;;2.50;1.77;;;;;;;18.95;86.81;99329.69;5024645;28;20210;-75
2022/09/26 10:41:40;;;;;;;3.23;1.83;;;;;;;19.08;86.81;99333.25;5017843;28;20233;-75
2022/09/26 10:44:23;;;;;;;1.67;1.53;;;;;;;18.96;85.83;99336.63;5012938;28;20242;-74
2022/09/26 10:46:52;;;;;;;1.80;1.57;;;;;;;18.76;86.30;99335.97;5016501;28;20200;-75
2022/09/26 10:49:22;;;;;;;2.97;2.10;;;;;;;18.62;84.79;99334.13;5019371;28;20190;-75
2022/09/26 10:52:07;;;;;;;2.97;1.80;;;;;;;18.50;84.19;99340.09;5015263;28;20796;-75
2022/09/26 10:54:42;;;;;;;2.33;1.93;;;;;;;18.49;85.02;99328.78;5022221;28;20190;-75
2022/09/26 10:57:18;;;;;;;2.80;1.97;;;;;;;18.69;85.62;99327.63;5017354;28;20724;-74
2022/09/26 10:59:45;;;;;;;4.03;2.30;;;;;;;18.99;86.83;99321.53;5022093;28;20190;-75
2022/09/26 11:02:20;;;;;;;2.30;2.00;;;;;;;19.12;87.08;99318.19;5020003;28;20662;-75
2022/09/26 11:07:36;;;;;;;2.30;2.00;;;;;;;18.79;86.55;99306.97;5021880;28;20436;-75
2022/09/26 11:10:08;;;;;;;4.07;3.70;;;;;;;18.46;88.97;99312.38;5021792;28;20568;-75
2022/09/26 11:12:38;;;;;;;3.60;2.90;;;;;;;18.29;91.41;99308.97;5022934;28;20243;-75
2022/09/26 11:15:10;;;;;;;4.33;2.50;;;;;;;18.50;91.38;99300.78;5021367;28;20487;-75
2022/09/26 11:17:47;;;;;;;3.07;2.10;;;;;;;18.84;90.58;99298.81;5020852;28;20631;-75
2022/09/26 11:20:31;;;;;;;2.47;1.93;;;;;;;19.08;87.25;99288.69;5011888;28;20192;-75
2022/09/26 11:23:19;;;;;;;2.20;2.00;;;;;;;19.07;87.20;99286.13;5018947;28;20283;-73
2022/09/26 11:26:00;;;;;;;2.40;1.70;;;;;;;19.05;85.28;99281.00;5017392;28;20187;-75
2022/09/26 11:28:35;;;;;;;4.73;2.00;;;;;;;18.89;85.43;99273.19;5021489;28;20215;-76
2022/09/26 11:31:12;;;;;;;2.63;2.03;;;;;;;18.73;85.74;99274.09;5023324;28;20183;-75
2022/09/26 11:33:41;;;;;;;3.07;2.17;;;;;;;18.64;86.58;99265.94;5024641;28;20186;-74
2022/09/26 11:36:22;;;;;;;2.97;1.80;;;;;;;18.55;86.91;99278.63;5012418;28;20227;-74
2022/09/26 11:39:11;;;;;;;3.37;2.10;;;;;;;18.61;85.48;99264.31;5024109;28;20190;-74
2022/09/26 11:41:44;;;;;;;2.87;1.83;;;;;;;18.66;86.80;99266.69;5011772;28;20313;-74
2022/09/26 11:44:55;;;;;;;2.27;2.00;;;;;;;18.84;86.53;99257.72;5021389;28;20575;-74
2022/09/26 11:47:37;;;;;;;2.10;1.90;;;;;;;18.90;86.77;99269.63;4963668;28;20206;-74
2022/09/26 11:50:28;;;;;;;2.27;1.40;;;;;;;18.86;86.33;99261.09;5018454;28;20282;-75
2022/09/26 11:53:25;;;;;;;2.10;1.30;;;;;;;18.83;85.49;99255.19;5021792;28;20183;-75
2022/09/26 11:56:14;;;;;;;2.33;1.90;;;;;;;18.90;85.30;99248.66;5003907;28;20227;-75
2022/09/26 11:59:13;;;;;;;3.03;2.10;;;;;;;18.77;83.96;99252.94;5021489;28;20422;-75
2022/09/26 12:01:42;;;;;;;2.57;1.80;;;;;;;18.57;83.83;99234.84;5020848;28;20252;-75